createdAt,value
2022-09-20T00:01:40.861Z,100.00
2022-09-20T00:04:15.196Z,100.00
2022-09-20T00:06:43.440Z,100.00
2022-09-20T00:09:12.374Z,100.00
2022-09-20T00:11:40.547Z,100.00
2022-09-20T00:14:09.419Z,100.00
2022-09-20T00:16:41.172Z,100.00
2022-09-20T00:19:19.897Z,100.00
2022-09-20T00:21:48.321Z,100.00
2022-09-20T00:24:16.546Z,100.00
2022-09-20T00:26:44.763Z,100.00
2022-09-20T00:29:13.784Z,100.00
2022-09-20T00:31:42.956Z,100.00
2022-09-20T00:34:31.485Z,100.00
2022-09-20T00:36:59.700Z,100.00
2022-09-20T00:39:27.982Z,100.00
2022-09-20T00:41:56.160Z,100.00
2022-09-20T00:44:56.786Z,100.00
2022-09-20T00:47:35.358Z,100.00
2022-09-20T00:50:16.112Z,100.00
2022-09-20T00:52:46.122Z,100.00
2022-09-20T00:55:15.411Z,100.00
2022-09-20T00:57:45.266Z,100.00
2022-09-20T01:00:15.116Z,100.00
2022-09-20T01:02:49.628Z,100.00
2022-09-20T01:05:20.875Z,100.00
2022-09-20T01:07:50.551Z,100.00
2022-09-20T01:10:19.332Z,100.00
2022-09-20T01:12:50.702Z,100.00
2022-09-20T01:15:19.702Z,100.00
2022-09-20T01:17:51.741Z,98.94
2022-09-20T01:20:25.008Z,99.88
2022-09-20T01:23:20.049Z,99.48
2022-09-20T01:26:24.329Z,99.18
2022-09-20T01:29:02.594Z,99.50
2022-09-20T01:31:36.289Z,99.86
2022-09-20T01:34:09.755Z,100.00
2022-09-20T01:36:45.257Z,100.00
2022-09-20T01:39:23.666Z,100.00
2022-09-20T01:41:59.154Z,100.00
2022-09-20T01:44:36.932Z,100.00
2022-09-20T01:47:12.537Z,100.00
2022-09-20T01:49:55.616Z,100.00
2022-09-20T01:53:09.006Z,100.00
2022-09-20T01:56:32.361Z,100.00
2022-09-20T01:59:38.799Z,100.00
2022-09-20T02:02:27.012Z,100.00
2022-09-20T02:05:39.605Z,100.00
2022-09-20T02:09:12.298Z,100.00
2022-09-20T02:11:58.362Z,100.00
2022-09-20T02:14:50.014Z,100.00
2022-09-20T02:17:28.973Z,100.00
2022-09-20T02:20:20.457Z,100.00
2022-09-20T02:23:22.692Z,100.00
2022-09-20T02:26:30.563Z,100.00
2022-09-20T02:29:13.135Z,100.00
2022-09-20T02:32:06.828Z,100.00
2022-09-20T02:35:20.073Z,100.00
2022-09-20T02:38:02.940Z,100.00
2022-09-20T02:41:02.753Z,100.00
2022-09-20T02:43:45.725Z,100.00
2022-09-20T02:46:22.791Z,100.00
2022-09-20T02:49:03.830Z,100.00
2022-09-20T02:51:41.797Z,100.00
2022-09-20T02:54:24.045Z,100.00
2022-09-20T02:57:01.719Z,100.00
2022-09-20T02:59:41.335Z,100.00
2022-09-20T03:02:19.446Z,100.00
2022-09-20T03:05:07.184Z,100.00
2022-09-20T03:07:47.635Z,100.00
2022-09-20T03:10:27.158Z,100.00
2022-09-20T03:13:12.108Z,100.00
2022-09-20T03:15:54.914Z,100.00
2022-09-20T03:18:35.356Z,100.00
2022-09-20T03:21:23.754Z,100.00
2022-09-20T03:24:04.388Z,100.00
2022-09-20T03:26:44.610Z,100.00
2022-09-20T03:29:28.333Z,100.00
2022-09-20T03:32:16.684Z,100.00
2022-09-20T03:34:58.024Z,100.00
2022-09-20T03:37:55.727Z,100.00
2022-09-20T03:40:53.823Z,100.00
2022-09-20T03:43:42.530Z,100.00
2022-09-20T03:46:19.724Z,100.00
2022-09-20T03:49:26.049Z,100.00
2022-09-20T03:52:04.272Z,100.00
2022-09-20T03:55:19.022Z,100.00
2022-09-20T03:58:10.497Z,100.00
2022-09-20T04:01:00.633Z,100.00
2022-09-20T04:03:46.018Z,100.00
2022-09-20T04:06:50.739Z,100.00
2022-09-20T04:09:52.159Z,100.00
2022-09-20T04:12:32.365Z,100.00
2022-09-20T04:15:17.611Z,100.00
2022-09-20T04:17:55.741Z,100.00
2022-09-20T04:20:33.169Z,100.00
2022-09-20T04:23:13.738Z,100.00
2022-09-20T04:25:48.169Z,100.00
2022-09-20T04:28:24.749Z,100.00
2022-09-20T04:30:57.992Z,100.00
2022-09-20T04:33:33.106Z,100.00
2022-09-20T04:36:29.680Z,100.00
2022-09-20T04:39:16.814Z,100.00
2022-09-20T04:42:32.639Z,100.00
2022-09-20T04:45:54.902Z,100.00
2022-09-20T04:48:58.816Z,100.00
2022-09-20T04:52:05.182Z,100.00
2022-09-20T04:55:16.504Z,100.00
2022-09-20T04:58:16.914Z,100.00
2022-09-20T05:01:31.582Z,100.00
2022-09-20T05:04:47.257Z,100.00
2022-09-20T05:08:14.219Z,100.00
2022-09-20T05:11:46.991Z,100.00
2022-09-20T05:14:45.049Z,100.00
2022-09-20T05:17:25.247Z,100.00
2022-09-20T05:20:24.108Z,100.00
2022-09-20T05:23:16.635Z,100.00
2022-09-20T05:26:08.146Z,100.00
2022-09-20T05:28:49.565Z,100.00
2022-09-20T05:31:28.324Z,100.00
2022-09-20T05:34:06.324Z,100.00
2022-09-20T05:36:46.672Z,100.00
2022-09-20T05:39:30.521Z,100.00
2022-09-20T05:42:05.709Z,100.00
2022-09-20T05:44:58.902Z,100.00
2022-09-20T05:47:38.225Z,100.00
2022-09-20T05:50:30.034Z,100.00
2022-09-20T05:53:33.576Z,100.00
2022-09-20T05:56:15.024Z,100.00
2022-09-20T05:58:58.152Z,100.00
2022-09-20T06:01:31.485Z,100.00
2022-09-20T06:04:16.081Z,100.00
2022-09-20T06:06:56.025Z,100.00
2022-09-20T06:10:07.608Z,100.00
2022-09-20T06:12:47.792Z,100.00
2022-09-20T06:15:25.224Z,100.00
2022-09-20T06:18:15.080Z,100.00
2022-09-20T06:20:59.123Z,100.00
2022-09-20T06:23:28.053Z,100.00
2022-09-20T06:26:02.862Z,100.00
2022-09-20T06:28:36.024Z,100.00
2022-09-20T06:31:07.335Z,100.00
2022-09-20T06:33:42.168Z,100.00
2022-09-20T06:36:34.399Z,100.00
2022-09-20T06:39:32.876Z,100.00
2022-09-20T06:42:02.764Z,100.00
2022-09-20T06:44:31.233Z,100.00
2022-09-20T06:46:59.609Z,100.00
2022-09-20T06:49:29.249Z,100.00
2022-09-20T06:51:57.510Z,100.00
2022-09-20T06:54:27.148Z,100.00
2022-09-20T06:56:55.776Z,100.00
2022-09-20T06:59:25.376Z,100.00
2022-09-20T07:01:53.624Z,100.00
2022-09-20T07:04:22.127Z,100.00
2022-09-20T07:06:50.361Z,100.00
2022-09-20T07:09:22.069Z,100.00
2022-09-20T07:11:50.234Z,100.00
2022-09-20T07:14:19.206Z,100.00
2022-09-20T07:16:48.796Z,100.00
2022-09-20T07:19:17.334Z,100.00
2022-09-20T07:21:45.538Z,100.00
2022-09-20T07:24:15.117Z,100.00
2022-09-20T07:26:56.518Z,100.00
2022-09-20T07:29:25.217Z,100.00
2022-09-20T07:31:58.953Z,99.50
2022-09-20T07:34:27.682Z,99.04
2022-09-20T07:36:57.399Z,99.46
2022-09-20T07:39:25.747Z,99.33
2022-09-20T07:41:57.617Z,97.12
2022-09-20T07:44:27.718Z,97.07
2022-09-20T07:47:00.305Z,97.08
2022-09-20T07:49:30.664Z,95.89
2022-09-20T07:51:59.288Z,95.58
2022-09-20T07:54:28.467Z,95.43
2022-09-20T07:56:56.835Z,95.68
2022-09-20T07:59:26.056Z,95.77
2022-09-20T08:01:54.311Z,94.04
2022-09-20T08:04:24.530Z,93.90
2022-09-20T08:07:02.780Z,94.46
2022-09-20T08:09:30.987Z,93.63
2022-09-20T08:11:59.258Z,91.95
2022-09-20T08:14:27.477Z,92.91
2022-09-20T08:16:58.221Z,92.40
2022-09-20T08:19:27.818Z,92.92
2022-09-20T08:21:55.963Z,90.83
2022-09-20T08:24:26.234Z,90.87
2022-09-20T08:26:54.511Z,89.76
2022-09-20T08:29:22.699Z,90.34
2022-09-20T08:31:52.579Z,89.42
2022-09-20T08:34:21.040Z,88.08
2022-09-20T08:36:52.679Z,88.78
2022-09-20T08:42:19.977Z,88.14
2022-09-20T08:45:00.436Z,84.04
2022-09-20T08:47:32.699Z,87.55
2022-09-20T08:50:09.781Z,88.95
2022-09-20T08:52:42.708Z,87.87
2022-09-20T08:55:17.339Z,86.68
2022-09-20T08:57:50.097Z,86.07
2022-09-20T09:00:21.158Z,87.59
2022-09-20T09:02:53.956Z,85.49
2022-09-20T09:05:35.858Z,84.30
2022-09-20T09:08:16.160Z,82.33
2022-09-20T09:10:47.420Z,81.40
2022-09-20T09:13:24.876Z,81.95
2022-09-20T09:15:58.673Z,82.01
2022-09-20T09:18:35.055Z,81.04
2022-09-20T09:21:13.750Z,78.78
2022-09-20T09:23:50.970Z,78.58
2022-09-20T09:26:22.499Z,78.72
2022-09-20T09:29:16.871Z,80.17
2022-09-20T09:31:46.596Z,80.25
2022-09-20T09:34:27.538Z,79.95
2022-09-20T09:36:56.726Z,80.95
2022-09-20T09:39:28.744Z,80.06
2022-09-20T09:42:00.927Z,80.61
2022-09-20T09:44:32.744Z,80.63
2022-09-20T09:47:01.602Z,79.56
2022-09-20T09:49:36.263Z,80.18
2022-09-20T09:52:14.947Z,79.98
2022-09-20T09:54:49.014Z,80.54
2022-09-20T09:57:41.004Z,81.10
2022-09-20T10:00:19.085Z,80.68
2022-09-20T10:03:13.851Z,79.67
2022-09-20T10:05:56.032Z,79.45
2022-09-20T10:08:36.443Z,79.01
2022-09-20T10:11:20.951Z,78.65
2022-09-20T10:14:03.396Z,78.99
2022-09-20T10:16:50.172Z,78.20
2022-09-20T10:19:24.785Z,75.20
2022-09-20T10:22:01.788Z,74.40
2022-09-20T10:24:42.581Z,72.84
2022-09-20T10:27:31.868Z,74.21
2022-09-20T10:30:10.261Z,74.17
2022-09-20T10:33:00.582Z,75.98
2022-09-20T10:35:52.564Z,74.77
2022-09-20T10:38:26.299Z,77.47
2022-09-20T10:41:32.188Z,77.54
2022-09-20T10:44:28.453Z,78.46
2022-09-20T10:47:04.247Z,78.58
2022-09-20T10:49:45.121Z,80.66
2022-09-20T10:52:37.866Z,82.14
2022-09-20T10:55:25.268Z,79.96
2022-09-20T10:59:01.476Z,80.80
2022-09-20T11:01:41.114Z,76.40
2022-09-20T11:04:55.560Z,78.98
2022-09-20T11:07:39.266Z,77.85
2022-09-20T11:10:20.223Z,74.34
2022-09-20T11:12:54.361Z,74.09
2022-09-20T11:15:27.344Z,69.27
2022-09-20T11:18:06.103Z,72.78
2022-09-20T11:20:44.256Z,71.79
2022-09-20T11:23:18.173Z,74.75
2022-09-20T11:25:51.923Z,80.29
2022-09-20T11:28:26.030Z,81.57
2022-09-20T11:31:00.854Z,81.72
2022-09-20T11:33:38.102Z,83.45
2022-09-20T11:36:17.294Z,83.55
2022-09-20T11:38:53.362Z,85.28
2022-09-20T11:41:27.877Z,85.64
2022-09-20T11:44:00.447Z,87.77
2022-09-20T11:46:34.421Z,88.84
2022-09-20T11:49:12.126Z,86.49
2022-09-20T11:52:13.967Z,84.15
2022-09-20T11:55:12.024Z,84.90
2022-09-20T11:57:43.032Z,82.26
2022-09-20T12:00:13.165Z,81.32
2022-09-20T12:02:48.604Z,83.44
2022-09-20T12:05:32.212Z,79.18
2022-09-20T12:08:03.447Z,80.72
2022-09-20T12:10:43.514Z,81.02
2022-09-20T12:13:25.530Z,82.37
2022-09-20T12:16:07.838Z,83.82
2022-09-20T12:19:02.652Z,85.28
2022-09-20T12:21:32.315Z,83.08
2022-09-20T12:24:21.688Z,80.28
2022-09-20T12:27:02.639Z,81.07
2022-09-20T12:30:16.018Z,78.69
2022-09-20T12:32:55.068Z,78.25
2022-09-20T12:36:14.471Z,75.54
2022-09-20T12:39:07.885Z,74.73
2022-09-20T12:41:55.672Z,73.53
2022-09-20T12:44:29.849Z,73.36
2022-09-20T12:47:01.999Z,71.75
2022-09-20T12:50:00.017Z,71.53
2022-09-20T12:53:01.089Z,79.18
2022-09-20T12:55:46.074Z,82.00
2022-09-20T12:58:32.329Z,83.63
2022-09-20T13:01:35.822Z,83.99
2022-09-20T13:04:41.004Z,85.65
2022-09-20T13:07:53.885Z,86.45
2022-09-20T13:10:29.138Z,84.04
2022-09-20T13:13:12.303Z,87.15
2022-09-20T13:15:40.818Z,84.06
2022-09-20T13:18:15.465Z,79.21
2022-09-20T13:20:44.402Z,80.25
2022-09-20T13:23:22.383Z,78.32
2022-09-20T13:25:51.632Z,80.11
2022-09-20T13:28:34.614Z,78.46
2022-09-20T13:31:30.731Z,81.07
2022-09-20T13:34:16.238Z,78.92
2022-09-20T13:36:44.630Z,81.47
2022-09-20T13:39:30.022Z,78.98
2022-09-20T13:42:06.955Z,79.38
2022-09-20T13:44:37.604Z,78.68
2022-09-20T13:47:27.115Z,76.57
2022-09-20T13:50:02.157Z,76.53
2022-09-20T13:52:32.457Z,72.88
2022-09-20T13:55:01.067Z,71.68
2022-09-20T13:57:31.161Z,70.86
2022-09-20T14:00:01.659Z,70.53
2022-09-20T14:02:40.311Z,67.66
2022-09-20T14:05:34.268Z,68.49
2022-09-20T14:08:07.469Z,68.28
2022-09-20T14:10:41.087Z,66.98
2022-09-20T14:13:15.404Z,66.21
2022-09-20T14:15:47.146Z,65.41
2022-09-20T14:18:19.919Z,66.65
2022-09-20T14:20:48.990Z,64.34
2022-09-20T14:23:22.843Z,63.81
2022-09-20T14:26:23.456Z,60.15
2022-09-20T14:28:51.695Z,61.27
2022-09-20T14:31:26.493Z,64.48
2022-09-20T14:33:58.145Z,65.82
2022-09-20T14:36:29.952Z,66.20
2022-09-20T14:39:02.260Z,68.06
2022-09-20T14:41:38.449Z,67.96
2022-09-20T14:44:17.439Z,68.03
2022-09-20T14:46:47.004Z,68.31
2022-09-20T14:49:33.866Z,65.31
2022-09-20T14:52:40.857Z,63.55
2022-09-20T14:55:28.284Z,63.98
2022-09-20T14:58:03.388Z,61.81
2022-09-20T15:00:32.185Z,62.16
2022-09-20T15:03:18.623Z,61.79
2022-09-20T15:05:50.887Z,60.46
2022-09-20T15:08:20.360Z,59.99
2022-09-20T15:10:48.814Z,60.80
2022-09-20T15:13:17.399Z,61.57
2022-09-20T15:15:45.908Z,62.98
2022-09-20T15:18:22.637Z,63.17
2022-09-20T15:20:51.543Z,64.20
2022-09-20T15:23:20.069Z,65.03
2022-09-20T15:25:52.021Z,64.69
2022-09-20T15:28:21.915Z,65.04
2022-09-20T15:30:52.463Z,64.82
2022-09-20T15:33:23.145Z,63.42
2022-09-20T15:35:51.370Z,62.15
2022-09-20T15:38:22.642Z,61.15
2022-09-20T15:40:51.335Z,61.94
2022-09-20T15:43:24.027Z,62.35
2022-09-20T15:45:56.236Z,62.58
2022-09-20T15:48:28.061Z,61.42
2022-09-20T15:51:06.676Z,59.59
2022-09-20T15:53:37.496Z,60.61
2022-09-20T15:56:15.585Z,60.72
2022-09-20T15:58:47.345Z,61.25
2022-09-20T16:01:17.572Z,60.05
2022-09-20T16:03:48.935Z,62.71
2022-09-20T16:06:19.368Z,62.19
2022-09-20T16:08:47.900Z,61.85
2022-09-20T16:11:22.613Z,60.29
2022-09-20T16:13:55.116Z,60.75
2022-09-20T16:16:23.492Z,61.91
2022-09-20T16:19:10.964Z,62.50
2022-09-20T16:21:40.558Z,61.73
2022-09-20T16:24:10.461Z,62.39
2022-09-20T16:26:38.940Z,62.38
2022-09-20T16:29:08.178Z,63.57
2022-09-20T16:31:39.813Z,63.31
2022-09-20T16:34:16.902Z,63.26
2022-09-20T16:36:45.427Z,64.56
2022-09-20T16:39:16.040Z,62.82
2022-09-20T16:41:45.312Z,62.36
2022-09-20T16:44:14.010Z,63.60
2022-09-20T16:46:42.528Z,62.47
2022-09-20T16:49:13.444Z,63.68
2022-09-20T16:51:43.543Z,66.01
2022-09-20T16:54:14.431Z,66.67
2022-09-20T16:56:45.241Z,69.30
2022-09-20T16:59:15.609Z,68.87
2022-09-20T17:01:45.083Z,69.77
2022-09-20T17:04:16.784Z,69.70
2022-09-20T17:06:45.881Z,69.24
2022-09-20T17:09:16.538Z,70.28
2022-09-20T17:11:47.251Z,70.97
2022-09-20T17:14:18.568Z,71.80
2022-09-20T17:16:47.792Z,71.61
2022-09-20T17:19:19.579Z,72.91
2022-09-20T17:21:50.624Z,73.79
2022-09-20T17:24:21.907Z,78.32
2022-09-20T17:26:51.717Z,83.16
2022-09-20T17:29:21.443Z,84.63
2022-09-20T17:31:55.479Z,87.88
2022-09-20T17:34:28.163Z,88.42
2022-09-20T17:36:56.358Z,91.95
2022-09-20T17:39:25.052Z,93.11
2022-09-20T17:41:53.268Z,93.81
2022-09-20T17:44:21.682Z,95.51
2022-09-20T17:46:53.869Z,97.23
2022-09-20T17:49:27.683Z,96.55
2022-09-20T17:51:57.042Z,97.68
2022-09-20T17:54:26.182Z,98.54
2022-09-20T17:56:56.473Z,97.28
2022-09-20T17:59:25.609Z,97.92
2022-09-20T18:01:54.766Z,97.93
2022-09-20T18:04:28.361Z,98.58
2022-09-20T18:06:56.711Z,99.04
2022-09-20T18:09:27.181Z,98.87
2022-09-20T18:11:56.727Z,98.60
2022-09-20T18:14:27.933Z,99.05
2022-09-20T18:16:59.932Z,99.35
2022-09-20T18:19:33.008Z,99.87
2022-09-20T18:22:02.709Z,99.60
2022-09-20T18:24:32.094Z,99.56
2022-09-20T18:27:00.796Z,97.86
2022-09-20T18:29:29.299Z,98.25
2022-09-20T18:31:59.627Z,98.81
2022-09-20T18:34:32.116Z,99.77
2022-09-20T18:37:03.656Z,99.92
2022-09-20T18:39:34.863Z,99.06
2022-09-20T18:42:04.116Z,98.91
2022-09-20T18:44:34.300Z,97.57
2022-09-20T18:47:03.809Z,96.21
2022-09-20T18:49:34.381Z,97.19
2022-09-20T18:52:03.541Z,97.15
2022-09-20T18:54:32.172Z,97.56
2022-09-20T18:57:01.841Z,97.11
2022-09-20T18:59:30.673Z,98.04
2022-09-20T19:02:35.853Z,97.99
2022-09-20T19:05:24.289Z,97.61
2022-09-20T19:08:11.149Z,97.11
2022-09-20T19:10:45.822Z,96.86
2022-09-20T19:13:30.435Z,96.21
2022-09-20T19:16:18.509Z,96.90
2022-09-20T19:19:23.632Z,97.41
2022-09-20T19:21:59.933Z,97.66
2022-09-20T19:24:47.682Z,96.23
2022-09-20T19:27:16.393Z,97.06
2022-09-20T19:29:45.764Z,97.88
2022-09-20T19:32:21.225Z,97.20
2022-09-20T19:34:55.061Z,97.04
2022-09-20T19:37:38.166Z,99.16
2022-09-20T19:40:27.456Z,99.03
2022-09-20T19:43:14.452Z,99.50
2022-09-20T19:45:55.677Z,98.52
2022-09-20T19:48:34.040Z,98.81
2022-09-20T19:51:08.108Z,97.44
2022-09-20T19:53:39.629Z,100.00
2022-09-20T19:56:22.928Z,99.58
2022-09-20T19:58:53.014Z,100.00
2022-09-20T20:01:46.633Z,100.00
2022-09-20T20:04:24.688Z,99.05
2022-09-20T20:07:03.214Z,99.79
2022-09-20T20:09:44.198Z,99.46
2022-09-20T20:12:16.372Z,99.80
2022-09-20T20:14:58.296Z,99.52
2022-09-20T20:17:44.119Z,99.02
2022-09-20T20:20:30.401Z,98.82
2022-09-20T20:23:35.581Z,99.57
2022-09-20T20:26:10.066Z,99.61
2022-09-20T20:28:39.004Z,100.00
2022-09-20T20:31:12.295Z,99.40
2022-09-20T20:33:41.276Z,100.00
2022-09-20T20:36:11.209Z,99.94
2022-09-20T20:38:40.839Z,99.74
2022-09-20T20:41:13.437Z,99.56
2022-09-20T20:43:45.644Z,100.00
2022-09-20T20:46:17.486Z,100.00
2022-09-20T20:48:47.214Z,100.00
2022-09-20T20:51:18.168Z,100.00
2022-09-20T20:53:48.155Z,100.00
2022-09-20T20:56:20.404Z,100.00
2022-09-20T20:58:50.202Z,100.00
2022-09-20T21:01:20.381Z,100.00
2022-09-20T21:03:52.054Z,100.00
2022-09-20T21:06:21.107Z,100.00
2022-09-20T21:08:50.137Z,100.00
2022-09-20T21:11:23.396Z,100.00
2022-09-20T21:13:52.120Z,100.00
2022-09-20T21:16:22.942Z,99.55
2022-09-20T21:18:52.265Z,99.48
2022-09-20T21:21:23.024Z,99.28
2022-09-20T21:23:53.612Z,99.97
2022-09-20T21:26:25.258Z,98.61
2022-09-20T21:28:57.959Z,99.00
2022-09-20T21:31:27.820Z,98.78
2022-09-20T21:33:56.440Z,98.38
2022-09-20T21:36:27.941Z,98.02
2022-09-20T21:38:56.422Z,97.70
2022-09-20T21:41:29.271Z,98.50
2022-09-20T21:44:00.058Z,97.74
2022-09-20T21:46:30.556Z,98.28
2022-09-20T21:49:04.015Z,97.54
2022-09-20T21:51:34.130Z,97.51
2022-09-20T21:54:03.833Z,97.21
2022-09-20T21:56:35.582Z,97.21
2022-09-20T21:59:09.385Z,97.95
2022-09-20T22:01:41.248Z,97.50
2022-09-20T22:04:13.715Z,97.85
2022-09-20T22:06:46.437Z,97.41
2022-09-20T22:09:16.689Z,96.96
2022-09-20T22:11:48.364Z,95.97
2022-09-20T22:14:19.646Z,96.43
2022-09-20T22:16:51.183Z,97.99
2022-09-20T22:19:19.992Z,97.48
2022-09-20T22:21:51.013Z,96.73
2022-09-20T22:24:19.777Z,96.32
2022-09-20T22:26:53.564Z,95.57
2022-09-20T22:29:22.069Z,95.49
2022-09-20T22:31:51.268Z,96.35
2022-09-20T22:34:22.000Z,96.14
2022-09-20T22:36:50.654Z,96.19
2022-09-20T22:39:19.140Z,96.30
2022-09-20T22:41:49.358Z,96.13
2022-09-20T22:44:17.630Z,96.79
2022-09-20T22:46:45.815Z,97.29
2022-09-20T22:49:14.000Z,96.96
2022-09-20T22:51:42.233Z,96.71
2022-09-20T22:54:12.985Z,96.39
2022-09-20T22:56:42.494Z,95.62
2022-09-20T22:59:13.861Z,95.38
2022-09-20T23:01:43.857Z,95.44
2022-09-20T23:04:14.813Z,96.47
2022-09-20T23:06:46.924Z,95.78
2022-09-20T23:09:18.356Z,95.53
2022-09-20T23:11:47.483Z,95.51
2022-09-20T23:14:19.193Z,95.86
2022-09-20T23:16:48.304Z,96.06
2022-09-20T23:19:17.528Z,95.78
2022-09-20T23:21:46.134Z,96.10
2022-09-20T23:24:19.676Z,95.67
2022-09-20T23:26:48.670Z,95.68
2022-09-20T23:29:18.666Z,96.00
2022-09-20T23:31:47.889Z,95.80
2022-09-20T23:34:17.399Z,95.17
2022-09-20T23:36:46.642Z,95.61
2022-09-20T23:39:15.256Z,95.60
2022-09-20T23:41:48.392Z,96.50
2022-09-20T23:44:20.452Z,96.45
2022-09-20T23:46:48.635Z,96.45
2022-09-20T23:49:16.978Z,96.56
2022-09-20T23:51:45.162Z,97.24
2022-09-20T23:54:13.368Z,96.93
2022-09-20T23:56:42.737Z,95.79
2022-09-20T23:59:10.921Z,95.26
